Time;durP1;ratioP1;P1;durP2;ratioP2;P2;SDS_P1;SDS_P2;PMS_P1;PMS_P2;Temp;Humidity;BMP_temperature;BMP_pressure;BME280_temperature;BME280_humidity;BME280_pressure;Samples;Min_cycle;Max_cycle;Signal;HPM_P1;HPM_P2
2023/05/24 00:00:10;;;;;;;8.30;7.00;;;;;;;16.58;59.75;100635.11;105212;1287;60588;-87
2023/05/24 00:02:56;;;;;;;9.80;7.00;;;;;;;16.47;59.81;100635.38;105241;1285;60555;-87
2023/05/24 00:05:45;;;;;;;;;;;;;;;16.44;60.01;100636.73;105264;1288;72452;-87
2023/05/24 00:08:33;;;;;;;9.40;6.40;;;;;;;16.37;59.88;100636.45;105504;1287;71679;-86
2023/05/24 00:11:21;;;;;;;9.90;7.00;;;;;;;16.35;59.87;100640.19;105404;1288;71208;-87
2023/05/24 00:14:07;;;;;;;9.00;6.80;;;;;;;16.31;59.87;100640.04;105358;1288;60342;-87
2023/05/24 00:16:53;;;;;;;;;;;;;;;16.23;59.98;100644.14;105415;1285;60400;-87
2023/05/24 00:19:41;;;;;;;8.50;7.50;;;;;;;16.15;59.87;100649.19;105328;1288;73283;-87
2023/05/24 00:22:27;;;;;;;8.40;7.30;;;;;;;16.04;59.88;100647.89;105411;1287;69329;-87
2023/05/24 00:25:14;;;;;;;8.80;7.80;;;;;;;15.95;59.93;100651.68;105305;1286;71318;-87
2023/05/24 00:28:00;;;;;;;10.20;8.00;;;;;;;15.89;59.95;100647.20;105228;1287;60481;-87
2023/05/24 00:30:46;;;;;;;11.80;7.70;;;;;;;15.83;60.01;100649.36;105288;1285;61019;-87
2023/05/24 00:33:33;;;;;;;10.70;8.10;;;;;;;15.76;59.97;100650.49;105377;1285;72350;-87
2023/05/24 00:36:19;;;;;;;;;;;;;;;15.68;60.05;100657.73;105030;1285;67435;-87
2023/05/24 00:39:05;;;;;;;9.80;7.70;;;;;;;15.63;60.03;100659.48;105447;1290;72530;-87
2023/05/24 00:41:51;;;;;;;16.30;8.20;;;;;;;15.55;60.11;100660.64;105342;1287;60443;-87
2023/05/24 00:44:38;;;;;;;8.50;7.70;;;;;;;15.46;60.27;100657.81;105276;1286;59347;-87
2023/05/24 00:47:24;;;;;;;12.20;8.60;;;;;;;15.40;60.29;100660.30;105182;1285;71424;-86
2023/05/24 00:50:13;;;;;;;9.10;7.50;;;;;;;15.36;60.41;100666.88;105151;1286;66287;-87
2023/05/24 00:53:05;;;;;;;11.30;8.10;;;;;;;15.31;60.37;100667.90;105152;1288;73055;-87
2023/05/24 00:55:51;;;;;;;9.60;7.60;;;;;;;15.24;60.51;100661.89;105642;1285;60430;-86
2023/05/24 00:58:37;;;;;;;10.00;8.40;;;;;;;15.21;60.50;100663.02;105368;1291;59206;-87
2023/05/24 01:01:24;;;;;;;14.50;8.20;;;;;;;15.17;60.58;100666.10;105203;1287;72538;-87
2023/05/24 01:04:11;;;;;;;11.70;8.50;;;;;;;15.14;60.56;100665.88;105279;1285;68400;-87
2023/05/24 01:07:12;;;;;;;8.90;7.90;;;;;;;15.09;60.73;100668.30;105165;1286;71037;-87
2023/05/24 01:10:26;;;;;;;8.50;7.30;;;;;;;15.08;60.89;100673.23;105398;1288;60648;-87
2023/05/24 01:13:46;;;;;;;9.30;7.80;;;;;;;15.06;60.75;100677.13;105483;1286;60418;-87
2023/05/24 01:16:48;;;;;;;10.10;7.50;;;;;;;14.98;60.94;100682.42;104513;1293;71396;-87
2023/05/24 01:19:52;;;;;;;10.20;7.10;;;;;;;14.94;60.92;100688.81;104611;1294;68348;-87
2023/05/24 01:23:10;;;;;;;9.10;7.00;;;;;;;14.91;61.03;100694.62;104593;1294;73068;-87
2023/05/24 01:26:35;;;;;;;7.60;6.90;;;;;;;14.90;61.15;100700.04;104582;1294;60595;-87
2023/05/24 01:29:23;;;;;;;9.80;6.70;;;;;;;14.87;61.34;100699.43;104646;1294;60349;-87
2023/05/24 01:32:11;;;;;;;11.10;7.00;;;;;;;14.84;61.24;100703.16;104664;1294;73775;-88
2023/05/24 01:34:57;;;;;;;7.30;6.60;;;;;;;14.80;61.32;100707.81;104544;1294;67354;-86
2023/05/24 01:37:44;;;;;;;6.70;5.30;;;;;;;14.82;61.32;100709.67;104318;1297;75364;-86
2023/05/24 01:40:30;;;;;;;5.20;4.70;;;;;;;14.85;61.42;100715.65;104400;1294;62688;-87
2023/05/24 01:43:42;;;;;;;6.60;5.30;;;;;;;14.81;61.52;100716.63;104504;1294;59490;-87
2023/05/24 01:46:38;;;;;;;6.90;5.80;;;;;;;14.79;61.58;100718.45;104346;1294;75287;-87
2023/05/24 01:49:32;;;;;;;8.00;5.10;;;;;;;14.80;61.49;100716.13;104756;1294;67171;-87
2023/05/24 01:52:22;;;;;;;7.20;6.00;;;;;;;14.79;61.58;100713.75;104597;1297;70175;-87
2023/05/24 01:55:10;;;;;;;5.30;4.90;;;;;;;14.77;61.73;100715.20;105352;1286;60521;-87
2023/05/24 01:58:01;;;;;;;5.00;4.50;;;;;;;14.80;61.74;100715.63;104985;1288;60377;-87
2023/05/24 02:00:47;;;;;;;5.90;5.40;;;;;;;14.81;61.82;100715.24;105127;1286;72603;-86
2023/05/24 02:03:36;;;;;;;;;;;;;;;14.82;61.72;100714.53;105244;1288;67466;-86
2023/05/24 02:06:23;;;;;;;6.20;4.80;;;;;;;14.80;61.82;100708.85;105410;1286;71475;-86
2023/05/24 02:09:09;;;;;;;;;;;;;;;14.76;61.85;100709.52;105170;1287;60876;-86
2023/05/24 02:11:55;;;;;;;;;;;;;;;14.72;61.88;100707.75;105370;1286;60571;-86
2023/05/24 02:14:43;;;;;;;5.40;4.90;;;;;;;14.70;62.02;100706.59;105312;1288;73292;-86
2023/05/24 02:17:31;;;;;;;4.90;4.50;;;;;;;14.67;61.92;100713.24;105250;1287;67255;-86
2023/05/24 02:20:18;;;;;;;7.20;4.80;;;;;;;14.67;62.21;100714.48;105187;1286;71095;-86
2023/05/24 02:23:05;;;;;;;5.00;4.30;;;;;;;14.68;62.25;100717.77;105188;1287;60493;-86
2023/05/24 02:25:52;;;;;;;5.90;4.60;;;;;;;14.66;62.18;100725.10;105306;1289;60319;-86
2023/05/24 02:28:38;;;;;;;9.40;4.70;;;;;;;14.65;62.22;100729.30;105280;1286;72653;-86
2023/05/24 02:31:28;;;;;;;5.30;4.80;;;;;;;14.64;62.38;100732.27;105253;1285;67240;-86
2023/05/24 02:34:14;;;;;;;6.30;5.30;;;;;;;14.64;62.41;100734.02;105394;1292;72548;-86
2023/05/24 02:37:01;;;;;;;5.70;4.80;;;;;;;14.64;62.37;100740.27;105216;1286;59095;-86
2023/05/24 02:39:47;;;;;;;5.50;4.90;;;;;;;14.65;62.55;100741.45;105393;1286;61585;-86
2023/05/24 02:42:33;;;;;;;5.80;4.20;;;;;;;14.67;62.46;100741.90;105352;1287;75514;-86
2023/05/24 02:45:19;;;;;;;6.60;4.40;;;;;;;14.68;62.49;100745.85;105426;1287;67896;-86
2023/05/24 02:48:05;;;;;;;5.60;4.50;;;;;;;14.67;62.56;100743.98;105359;1288;72357;-86
2023/05/24 02:50:52;;;;;;;5.80;4.00;;;;;;;14.69;62.57;100744.44;105477;1288;60233;-86
2023/05/24 02:53:38;;;;;;;4.70;4.30;;;;;;;14.70;62.59;100745.98;105331;1288;60332;-86
2023/05/24 02:56:25;;;;;;;4.30;3.70;;;;;;;14.69;62.54;100750.87;105372;1285;72702;-86
2023/05/24 02:59:11;;;;;;;5.70;3.80;;;;;;;14.65;62.57;100752.73;105419;1286;67279;-86
2023/05/24 03:01:58;;;;;;;4.40;3.80;;;;;;;14.62;62.58;100758.52;105313;1290;71168;-86
2023/05/24 03:04:44;;;;;;;4.40;3.30;;;;;;;14.61;62.64;100759.29;105418;1287;60497;-86
2023/05/24 03:07:30;;;;;;;4.90;3.20;;;;;;;14.58;62.79;100759.50;105558;1290;59737;-86
2023/05/24 03:10:17;;;;;;;3.60;3.30;;;;;;;14.56;62.78;100755.92;105510;1286;73162;-86
2023/05/24 03:13:03;;;;;;;3.40;3.00;;;;;;;14.57;62.79;100756.77;105328;1288;67141;-86
2023/05/24 03:15:49;;;;;;;3.90;2.70;;;;;;;14.56;62.69;100761.33;105333;1288;75429;-86
2023/05/24 03:18:35;;;;;;;4.90;3.50;;;;;;;14.54;62.82;100765.04;105333;1285;59152;-86
2023/05/24 03:21:22;;;;;;;2.60;2.40;;;;;;;14.53;63.00;100763.17;105491;1290;60093;-86
2023/05/24 03:24:08;;;;;;;;;;;;;;;14.55;63.05;100765.52;105434;1286;72563;-87
2023/05/24 03:26:54;;;;;;;;;;;;;;;14.54;62.97;100767.14;105335;1288;67322;-86
2023/05/24 03:29:40;;;;;;;3.00;2.40;;;;;;;14.51;63.08;100771.55;105446;1287;71458;-86
2023/05/24 03:32:26;;;;;;;3.80;2.00;;;;;;;14.50;63.07;100783.02;105154;1286;59628;-86
2023/05/24 03:35:13;;;;;;;5.70;2.20;;;;;;;14.49;63.01;100785.31;105121;1291;60358;-86
2023/05/24 03:38:00;;;;;;;4.00;1.90;;;;;;;14.49;63.07;100786.88;105035;1287;72368;-86
2023/05/24 03:40:46;;;;;;;2.10;1.90;;;;;;;14.49;63.13;100791.38;105322;1287;67521;-86
2023/05/24 03:43:32;;;;;;;2.30;1.90;;;;;;;14.51;63.15;100798.10;105231;1290;70289;-86
2023/05/24 03:46:18;;;;;;;2.10;1.70;;;;;;;14.51;63.12;100794.64;105483;1288;60512;-86
2023/05/24 03:49:06;;;;;;;2.60;2.00;;;;;;;14.50;63.19;100794.14;105229;1291;60873;-86
2023/05/24 03:51:52;;;;;;;2.50;1.60;;;;;;;14.49;63.24;100789.48;105264;1286;72487;-86
2023/05/24 03:54:38;;;;;;;1.60;1.50;;;;;;;14.49;63.19;100792.45;105567;1286;67269;-86
2023/05/24 03:57:24;;;;;;;1.60;1.50;;;;;;;14.48;63.27;100791.77;105370;1291;72592;-86
2023/05/24 04:00:11;;;;;;;1.70;1.50;;;;;;;14.48;63.36;100787.42;105548;1290;60319;-86
2023/05/24 04:02:58;;;;;;;1.70;1.60;;;;;;;14.48;63.38;100792.99;105375;1286;60410;-86
2023/05/24 04:05:45;;;;;;;2.40;1.50;;;;;;;14.46;63.47;100793.20;105272;1288;72555;-86
2023/05/24 04:08:31;;;;;;;3.50;1.50;;;;;;;14.46;63.62;100796.51;105243;1286;67256;-86
2023/05/24 04:11:17;;;;;;;1.30;1.30;;;;;;;14.43;63.65;100800.94;105217;1286;75402;-86
2023/05/24 04:14:03;;;;;;;2.10;1.30;;;;;;;14.42;63.69;100803.57;105131;1287;59302;-86
2023/05/24 04:16:50;;;;;;;6.60;1.40;;;;;;;14.44;63.65;100805.93;104716;1287;60382;-87
2023/05/24 04:19:36;;;;;;;1.40;1.30;;;;;;;14.44;63.79;100810.09;104796;1286;72677;-87
2023/05/24 04:22:24;;;;;;;1.60;1.50;;;;;;;14.44;63.73;100813.73;105069;1290;70124;-86
2023/05/24 04:25:10;;;;;;;3.40;3.10;;;;;;;14.45;63.88;100813.87;105364;1289;71236;-86
2023/05/24 04:27:57;;;;;;;1.80;1.70;;;;;;;14.49;63.87;100818.62;105473;1286;60971;-87
2023/05/24 04:30:44;;;;;;;1.80;1.50;;;;;;;14.48;63.84;100828.17;105585;1288;60370;-87
2023/05/24 04:33:35;;;;;;;2.70;1.50;;;;;;;14.47;63.78;100834.81;105390;1286;72861;-86
2023/05/24 04:36:22;;;;;;;2.50;1.80;;;;;;;14.42;63.69;100833.73;105518;1290;67370;-87
2023/05/24 04:39:10;;;;;;;2.90;2.00;;;;;;;14.37;63.83;100839.56;105503;1286;72963;-87
2023/05/24 04:41:59;;;;;;;2.40;1.90;;;;;;;14.31;63.91;100840.09;105447;1290;59146;-87
2023/05/24 04:44:45;;;;;;;1.90;1.50;;;;;;;14.25;64.02;100839.23;105419;1285;60728;-87
2023/05/24 04:47:31;;;;;;;2.00;1.50;;;;;;;14.20;64.03;100841.94;105382;1286;74620;-87
2023/05/24 04:50:19;;;;;;;2.20;1.40;;;;;;;14.20;64.15;100848.17;105357;1291;68594;-87
2023/05/24 04:53:05;;;;;;;;;;;;;;;14.24;64.13;100853.97;105478;1290;71370;-88
2023/05/24 04:55:51;;;;;;;1.80;1.60;;;;;;;14.25;64.12;100854.81;105564;1291;60563;-87
2023/05/24 04:58:38;;;;;;;2.90;1.80;;;;;;;14.27;64.14;100854.25;105408;1286;63001;-88
2023/05/24 05:01:24;;;;;;;4.40;1.60;;;;;;;14.30;64.19;100857.63;105378;1289;74057;-87
2023/05/24 05:04:11;;;;;;;3.70;1.50;;;;;;;14.34;64.21;100862.02;105430;1285;67847;-86
2023/05/24 05:06:57;;;;;;;4.60;1.50;;;;;;;14.41;64.17;100866.54;105386;1292;71355;-86
2023/05/24 05:09:43;;;;;;;1.90;1.30;;;;;;;14.43;64.12;100869.63;105375;1286;58898;-87
2023/05/24 05:12:30;;;;;;;4.00;1.60;;;;;;;14.43;64.20;100874.81;105399;1286;60526;-87
2023/05/24 05:15:16;;;;;;;5.60;1.70;;;;;;;14.46;64.17;100872.64;105485;1288;72212;-87
2023/05/24 05:18:04;;;;;;;2.80;1.60;;;;;;;14.49;64.27;100874.30;105407;1286;67341;-87
2023/05/24 05:20:54;;;;;;;4.40;1.50;;;;;;;14.55;64.16;100873.95;105815;1286;71173;-87
2023/05/24 05:23:42;;;;;;;1.60;1.30;;;;;;;14.59;64.30;100876.95;105508;1288;60931;-88
2023/05/24 05:26:29;;;;;;;4.70;1.70;;;;;;;14.62;64.24;100877.74;105404;1291;59355;-87
2023/05/24 05:29:16;;;;;;;4.00;1.90;;;;;;;14.65;64.24;100880.27;105397;1289;72556;-87
2023/05/24 05:32:03;;;;;;;2.50;1.50;;;;;;;14.66;64.32;100882.31;105607;1286;69080;-87
2023/05/24 05:34:49;;;;;;;;;;;;;;;14.71;64.34;100887.53;105390;1287;71078;-87
2023/05/24 05:37:38;;;;;;;3.40;2.20;;;;;;;14.68;64.22;100893.35;105474;1290;60608;-87
2023/05/24 05:40:30;;;;;;;3.80;3.20;;;;;;;14.62;64.20;100898.20;105713;1288;60508;-87
2023/05/24 05:43:16;;;;;;;5.40;3.40;;;;;;;14.58;64.15;100897.45;106336;1286;73761;-87
2023/05/24 05:46:04;;;;;;;7.30;3.80;;;;;;;14.55;64.24;100897.54;105956;1288;67545;-87
2023/05/24 05:48:51;;;;;;;4.40;3.30;;;;;;;14.55;64.32;100897.38;105772;1287;72895;-87
2023/05/24 05:51:38;;;;;;;5.40;4.20;;;;;;;14.57;64.26;100901.80;105430;1285;60371;-88
2023/05/24 05:54:26;;;;;;;6.60;3.60;;;;;;;14.54;64.35;100905.05;105053;1286;60452;-88
2023/05/24 05:57:13;;;;;;;6.70;4.20;;;;;;;14.49;64.29;100911.61;104851;1286;72482;-88
2023/05/24 06:00:00;;;;;;;8.10;3.60;;;;;;;14.48;64.36;100921.19;104867;1286;71662;-87
2023/05/24 06:02:47;;;;;;;7.60;4.10;;;;;;;14.45;64.44;100923.52;104861;1287;71157;-87
2023/05/24 06:05:35;;;;;;;5.10;4.20;;;;;;;14.44;64.32;100923.69;105171;1286;61115;-87
2023/05/24 06:08:25;;;;;;;9.30;4.20;;;;;;;14.44;64.45;100920.61;105397;1285;61539;-87
2023/05/24 06:11:11;;;;;;;6.40;4.00;;;;;;;14.43;64.47;100919.91;105380;1286;73164;-88
2023/05/24 06:13:57;;;;;;;;;;;;;;;14.42;64.50;100924.11;105392;1286;67417;-87
2023/05/24 06:17:15;;;;;;;7.00;4.40;;;;;;;14.39;64.59;100925.37;105121;1287;71139;-88
2023/05/24 06:20:17;;;;;;;4.10;3.70;;;;;;;14.37;64.53;100932.18;105947;1286;59136;-86
2023/05/24 06:23:03;;;;;;;5.10;3.80;;;;;;;14.37;64.55;100932.39;105394;1286;59990;-85
2023/05/24 06:25:50;;;;;;;7.10;3.90;;;;;;;14.38;64.59;100936.86;105330;1286;75287;-86
2023/05/24 06:28:36;;;;;;;5.20;3.80;;;;;;;14.41;64.57;100939.73;105471;1290;70137;-85
2023/05/24 06:31:22;;;;;;;5.90;3.80;;;;;;;14.41;64.53;100942.50;105328;1286;71742;-86
2023/05/24 06:34:08;;;;;;;5.30;3.80;;;;;;;14.45;64.53;100949.20;105561;1285;61230;-86
2023/05/24 06:36:55;;;;;;;5.20;3.20;;;;;;;14.48;64.54;100954.64;105513;1288;63471;-85
2023/05/24 06:39:41;;;;;;;8.40;3.90;;;;;;;14.47;64.53;100968.05;105452;1292;74515;-85
2023/05/24 06:42:27;;;;;;;7.50;3.20;;;;;;;14.45;64.61;100975.71;105425;1286;67378;-85
2023/05/24 06:45:14;;;;;;;5.40;3.40;;;;;;;14.46;64.61;100978.99;105062;1291;278787;-86
2023/05/24 06:48:01;;;;;;;4.10;2.70;;;;;;;14.47;64.61;100977.39;105426;1286;59961;-85
2023/05/24 06:50:47;;;;;;;3.00;2.70;;;;;;;14.50;64.65;100982.19;105451;1290;59701;-85
2023/05/24 06:53:33;;;;;;;6.80;2.90;;;;;;;14.52;64.59;100986.65;105363;1292;74489;-86
2023/05/24 06:56:20;;;;;;;2.70;2.40;;;;;;;14.52;64.59;100992.89;105280;1287;67073;-86
2023/05/24 06:59:07;;;;;;;3.00;2.40;;;;;;;14.54;64.72;100994.74;105299;1291;72573;-85
2023/05/24 07:01:56;;;;;;;3.00;2.10;;;;;;;14.57;64.77;100993.24;105338;1285;61292;-85
2023/05/24 07:04:42;;;;;;;4.00;2.80;;;;;;;14.59;64.73;100999.09;105314;1290;61671;-85
2023/05/24 07:07:28;;;;;;;3.00;2.30;;;;;;;14.61;64.74;101003.20;105382;1286;73277;-86
2023/05/24 07:10:14;;;;;;;2.70;2.50;;;;;;;14.63;64.71;101005.07;105337;1286;68521;-85
2023/05/24 07:13:01;;;;;;;5.60;2.80;;;;;;;14.62;64.62;101008.04;105516;1287;72890;-85
2023/05/24 07:15:48;;;;;;;2.60;2.20;;;;;;;14.58;64.71;101007.60;105497;1286;59373;-86
2023/05/24 07:18:34;;;;;;;2.30;2.10;;;;;;;14.59;64.71;101007.60;105498;1290;61272;-86
2023/05/24 07:21:21;;;;;;;2.30;1.90;;;;;;;14.56;64.79;101010.95;105540;1286;75662;-85
2023/05/24 07:24:07;;;;;;;2.80;2.60;;;;;;;14.56;64.71;101015.48;105452;1284;67272;-85
2023/05/24 07:26:56;;;;;;;3.40;3.10;;;;;;;14.53;64.75;101020.27;105251;1287;77488;-85
2023/05/24 07:29:42;;;;;;;2.70;2.30;;;;;;;14.54;64.85;101028.08;105347;1285;60013;-85
2023/05/24 07:32:28;;;;;;;2.70;2.00;;;;;;;14.56;64.78;101034.21;105374;1286;61525;-85
2023/05/24 07:35:15;;;;;;;2.20;1.80;;;;;;;14.60;64.87;101035.17;105469;1291;76019;-86
2023/05/24 07:38:01;;;;;;;;;;;;;;;14.61;64.83;101030.95;105363;1286;67084;-86
2023/05/24 07:40:47;;;;;;;;;;;;;;;14.63;64.82;101038.39;105544;1286;71189;-86
2023/05/24 07:43:33;;;;;;;2.80;1.90;;;;;;;14.62;64.83;101039.45;105485;1285;60986;-85
2023/05/24 07:46:20;;;;;;;1.90;1.70;;;;;;;14.63;64.69;101044.80;105533;1286;58946;-85
2023/05/24 07:49:06;;;;;;;1.80;1.60;;;;;;;14.65;64.91;101049.25;105425;1286;73239;-85
2023/05/24 07:51:57;;;;;;;2.40;1.60;;;;;;;14.66;64.77;101050.27;105456;1288;67426;-86
2023/05/24 07:54:43;;;;;;;2.50;2.00;;;;;;;14.66;64.87;101051.33;105430;1292;71143;-86
2023/05/24 07:57:30;;;;;;;2.30;2.10;;;;;;;14.67;64.88;101049.02;101619;1288;5055381;-85
2023/05/24 08:00:17;;;;;;;2.40;1.50;;;;;;;14.70;64.83;101049.14;105340;1286;73199;-85
2023/05/24 08:03:04;;;;;;;2.20;2.00;;;;;;;14.72;64.98;101052.03;105515;1286;70024;-87
2023/05/24 08:05:51;;;;;;;1.70;1.60;;;;;;;14.72;64.89;101057.40;105288;1285;72462;-88
2023/05/24 08:08:39;;;;;;;1.70;1.60;;;;;;;14.73;64.88;101063.96;105269;1286;59881;-87
2023/05/24 08:11:46;;;;;;;1.70;1.60;;;;;;;14.72;65.00;101069.03;105278;1286;59419;-87
2023/05/24 08:14:33;;;;;;;1.60;1.50;;;;;;;14.68;64.84;101071.23;105408;1286;73166;-88
2023/05/24 08:17:20;;;;;;;1.30;1.20;;;;;;;14.63;64.94;101074.81;105336;1286;68634;-86
2023/05/24 08:20:45;;;;;;;;;;;;;;;;;;;;;
2023/05/24 08:23:32;;;;;;;3.80;1.80;;;;;;;14.75;65.08;101084.05;105450;1287;59795;-89
2023/05/24 08:26:27;;;;;;;2.10;1.80;;;;;;;14.74;64.82;101084.60;105823;1286;61163;-90
2023/05/24 08:29:16;;;;;;;1.80;1.70;;;;;;;14.77;64.94;101087.14;105670;1286;73301;-90
2023/05/24 08:32:08;;;;;;;2.60;1.80;;;;;;;14.79;65.01;101086.73;105587;1288;69031;-89
2023/05/24 08:35:07;;;;;;;3.70;3.40;;;;;;;14.84;64.95;101085.21;105694;1288;71451;-90
2023/05/24 08:37:48;;;;;;;2.50;2.30;;;;;;;14.87;64.91;101091.20;105957;1285;59391;-90
2023/05/24 08:46:27;;;;;;;2.60;2.40;;;;;;;14.95;65.03;101108.02;106131;1284;80115;-90
2023/05/24 09:13:11;;;;;;;5.20;3.20;;;;;;;15.38;64.93;101134.61;84410;1310;66917;-92
2023/05/24 09:16:05;;;;;;;3.20;2.60;;;;;;;15.40;64.99;101135.95;105221;1288;70858;-90
2023/05/24 09:19:10;;;;;;;;;;;;;;;;;;;;;
2023/05/24 09:22:10;;;;;;;2.80;2.60;;;;;;;15.38;64.88;101138.27;105288;1289;61206;-90
2023/05/24 09:25:21;;;;;;;2.60;2.40;;;;;;;15.34;64.97;101138.73;105292;1289;77652;-91
2023/05/24 09:28:36;;;;;;;3.20;2.70;;;;;;;15.32;65.03;101144.33;105355;1289;67359;-90
2023/05/24 09:31:57;;;;;;;4.00;3.20;;;;;;;15.35;64.86;101142.86;105740;1288;71345;-90
2023/05/24 09:35:08;;;;;;;5.60;3.30;;;;;;;15.38;64.91;101146.44;105247;1289;61733;-90
2023/05/24 09:38:02;;;;;;;4.30;3.40;;;;;;;15.40;64.96;101146.20;105482;1294;59778;-90
2023/05/24 09:41:22;;;;;;;3.50;3.10;;;;;;;15.44;64.97;101151.48;105366;1288;74047;-90
2023/05/24 09:44:46;;;;;;;6.30;3.20;;;;;;;15.49;64.89;101153.07;105285;1289;68544;-90
2023/05/24 09:47:51;;;;;;;4.90;3.30;;;;;;;15.49;64.79;101153.77;104884;1296;73924;-90
2023/05/24 09:50:41;;;;;;;9.70;3.40;;;;;;;15.48;64.81;101157.63;104935;1293;62150;-90
2023/05/24 09:54:09;;;;;;;9.10;4.30;;;;;;;15.50;64.92;101163.31;104992;1293;61310;-90
2023/05/24 09:57:03;;;;;;;6.10;3.70;;;;;;;15.51;64.78;101162.75;105000;1293;72827;-90
2023/05/24 09:59:51;;;;;;;5.80;4.60;;;;;;;15.48;64.83;101163.34;104933;1293;67316;-90
2023/05/24 10:02:40;;;;;;;6.70;3.80;;;;;;;15.47;64.79;101168.08;104982;1297;71208;-90
2023/05/24 10:06:06;;;;;;;6.30;4.60;;;;;;;15.46;64.91;101168.64;105048;1293;61089;-90
2023/05/24 10:08:55;;;;;;;5.10;4.30;;;;;;;15.50;64.88;101174.25;105111;1292;61254;-90
2023/05/24 10:11:42;;;;;;;6.10;4.10;;;;;;;15.52;64.94;101177.66;104964;1294;73255;-90
2023/05/24 10:14:37;;;;;;;4.60;4.00;;;;;;;15.59;64.93;101177.67;105141;1293;67212;-91
2023/05/24 10:17:55;;;;;;;6.80;4.10;;;;;;;15.68;64.95;101184.02;105287;1288;71315;-90
2023/05/24 10:20:50;;;;;;;7.40;3.50;;;;;;;15.77;64.82;101187.05;105430;1290;63873;-90
2023/05/24 10:23:49;;;;;;;8.40;3.40;;;;;;;15.80;64.84;101186.80;105467;1289;59359;-90
2023/05/24 10:26:39;;;;;;;6.40;3.90;;;;;;;15.85;64.89;101189.79;105467;1288;73130;-91
2023/05/24 10:30:06;;;;;;;9.30;4.50;;;;;;;15.87;64.81;101193.71;105431;1294;68407;-90
2023/05/24 10:33:03;;;;;;;6.10;4.30;;;;;;;15.84;64.70;101192.77;104765;1296;72047;-90
2023/05/24 10:35:51;;;;;;;6.50;4.60;;;;;;;15.82;64.65;101190.92;104860;1296;59450;-90
2023/05/24 10:38:42;;;;;;;8.90;3.90;;;;;;;15.81;64.72;101192.50;104692;1297;59375;-90
2023/05/24 10:44:27;;;;;;;5.90;3.90;;;;;;;15.90;64.75;101193.46;105759;1286;68032;-90
2023/05/24 10:47:21;;;;;;;5.80;4.00;;;;;;;15.95;64.84;101197.69;105521;1291;72039;-90
2023/05/24 10:50:39;;;;;;;9.30;4.00;;;;;;;15.97;64.65;101201.95;105844;1289;61214;-90
2023/05/24 10:53:29;;;;;;;9.10;5.10;;;;;;;15.98;64.57;101206.98;105798;1291;59190;-89
2023/05/24 10:56:39;;;;;;;8.00;5.00;;;;;;;16.02;64.59;101210.69;105703;1291;74409;-89
2023/05/24 10:59:38;;;;;;;6.70;4.80;;;;;;;16.05;64.55;101217.20;105785;1291;67210;-90
2023/05/24 11:02:33;;;;;;;6.00;3.90;;;;;;;16.09;64.62;101218.67;105508;1286;72032;-89
2023/05/24 11:06:06;;;;;;;9.50;4.70;;;;;;;16.10;64.49;101222.45;105561;1289;61254;-89
2023/05/24 11:09:08;;;;;;;8.80;4.60;;;;;;;16.07;64.42;101224.46;104970;1294;62158;-89
2023/05/24 11:12:20;;;;;;;6.60;4.60;;;;;;;16.07;64.62;101222.70;104992;1296;73600;-90
2023/05/24 12:11:14;;;;;;;10.90;5.70;;;;;;;15.94;64.28;101244.14;105605;1288;72881;-90
2023/05/24 13:08:12;;;;;;;9.90;6.00;;;;;;;15.97;64.16;101251.02;105600;1288;60439;-90
2023/05/24 13:28:59;;;;;;;12.00;6.50;;;;;;;16.05;64.11;101253.39;105495;1289;72895;-90
2023/05/24 13:31:48;;;;;;;10.80;6.10;;;;;;;16.05;64.04;101256.35;105425;1290;61013;-91
2023/05/24 14:28:30;;;;;;;11.70;6.80;;;;;;;15.92;64.16;101280.54;106147;1288;77227;-92
2023/05/24 14:52:20;;;;;;;11.00;7.40;;;;;;;15.88;64.08;101289.50;106189;1286;78284;-91
2023/05/24 14:57:52;;;;;;;;;;;;;;;15.85;64.29;101295.67;106364;1289;74689;-91
2023/05/24 15:03:24;;;;;;;9.90;6.00;;;;;;;15.73;64.22;101300.33;106129;1291;74148;-91
2023/05/24 15:09:03;;;;;;;;;;;;;;;15.67;64.25;101306.39;106439;1288;60213;-91
2023/05/24 15:27:37;;;;;;;11.50;6.70;;;;;;;15.50;64.36;101305.45;104671;1291;65634;-91
2023/05/24 16:22:01;;;;;;;10.30;6.40;;;;;;;15.55;64.66;101310.70;98950;1289;65771;-89
2023/05/24 16:24:56;;;;;;;10.30;5.90;;;;;;;15.54;64.78;101312.64;106250;1288;72378;-90
2023/05/24 16:28:02;;;;;;;8.00;5.20;;;;;;;15.53;64.74;101313.37;105996;1294;59034;-89
2023/05/24 16:30:54;;;;;;;8.00;5.80;;;;;;;15.54;64.80;101314.73;106045;1291;59061;-90
2023/05/24 16:33:43;;;;;;;9.90;6.20;;;;;;;15.56;64.85;101310.68;106048;1291;72617;-90
2023/05/24 16:36:30;;;;;;;10.60;6.60;;;;;;;15.54;64.71;101313.86;105892;1290;67013;-89
2023/05/24 16:39:17;;;;;;;10.20;6.60;;;;;;;15.52;64.80;101314.77;105917;1291;72487;-90
2023/05/24 16:42:02;;;;;;;10.00;6.80;;;;;;;15.50;64.82;101314.83;105773;1297;59922;-90
2023/05/24 16:44:47;;;;;;;11.50;6.50;;;;;;;15.48;64.89;101314.00;105789;1292;59033;-89
2023/05/24 16:47:31;;;;;;;9.40;6.80;;;;;;;15.49;64.91;101315.20;105836;1291;74539;-90
2023/05/24 16:50:19;;;;;;;9.70;6.20;;;;;;;15.47;64.89;101316.29;105817;1290;68085;-90
2023/05/24 16:53:16;;;;;;;9.60;6.10;;;;;;;15.47;64.98;101312.64;105534;1291;72541;-91
2023/05/24 16:56:01;;;;;;;8.10;5.80;;;;;;;15.47;65.01;101313.17;105704;1294;59152;-91
2023/05/24 16:59:15;;;;;;;9.20;5.50;;;;;;;15.45;65.03;101318.77;105822;1291;60148;-91
2023/05/24 17:02:01;;;;;;;8.60;5.90;;;;;;;15.43;64.90;101327.69;105945;1291;73512;-91
2023/05/24 17:04:46;;;;;;;9.50;5.80;;;;;;;15.37;64.98;101333.21;105753;1291;67990;-91
2023/05/24 17:07:30;;;;;;;13.80;6.20;;;;;;;15.34;65.07;101335.20;105672;1291;72525;-89
2023/05/24 17:10:15;;;;;;;11.80;7.00;;;;;;;15.32;65.01;101335.26;105630;1291;59431;-90
2023/05/24 17:13:00;;;;;;;12.50;6.00;;;;;;;15.28;64.97;101336.05;105790;1294;59621;-91
2023/05/24 17:15:44;;;;;;;9.10;6.70;;;;;;;15.24;65.15;101334.39;105823;1291;74081;-91
2023/05/24 17:18:29;;;;;;;12.30;5.90;;;;;;;15.22;65.10;101337.22;105638;1290;68769;-90
2023/05/24 17:21:14;;;;;;;7.80;5.90;;;;;;;15.18;65.13;101335.58;105638;1291;73243;-90
2023/05/24 17:23:58;;;;;;;9.90;6.20;;;;;;;15.15;65.12;101334.61;105683;1291;59280;-89
2023/05/24 17:26:44;;;;;;;9.00;6.20;;;;;;;15.11;65.09;101331.75;105807;1291;59095;-90
2023/05/24 17:29:29;;;;;;;8.20;6.10;;;;;;;15.08;65.16;101338.27;105789;1291;74769;-91
2023/05/24 17:32:14;;;;;;;9.20;6.50;;;;;;;15.06;65.19;101342.15;105729;1294;67309;-90
2023/05/24 17:34:58;;;;;;;8.00;6.60;;;;;;;15.05;65.21;101344.27;105827;1291;71375;-90
2023/05/24 17:37:44;;;;;;;7.80;5.70;;;;;;;15.01;65.18;101345.57;105849;1291;59037;-89
2023/05/24 17:40:30;;;;;;;;;;;;;;;14.94;65.25;101350.76;105728;1297;59832;-89
2023/05/24 17:43:57;;;;;;;7.40;5.60;;;;;;;14.88;65.43;101357.29;105881;1291;73397;-91
2023/05/24 17:47:10;;;;;;;9.10;5.70;;;;;;;14.82;65.41;101361.06;106035;1291;68522;-92
2023/05/24 17:50:19;;;;;;;8.50;5.70;;;;;;;14.77;65.29;101363.79;106029;1294;71460;-91
2023/05/24 17:53:34;;;;;;;7.70;5.30;;;;;;;14.73;65.54;101363.86;106053;1291;59447;-91
2023/05/24 17:56:42;;;;;;;7.80;5.50;;;;;;;14.71;65.45;101366.85;106019;1291;60257;-92
2023/05/24 18:00:15;;;;;;;9.80;5.50;;;;;;;14.70;65.53;101365.33;105795;1292;73206;-91
2023/05/24 18:04:00;;;;;;;6.80;5.00;;;;;;;14.69;65.53;101364.65;105599;1296;67498;-91
2023/05/24 18:07:45;;;;;;;7.80;5.60;;;;;;;14.67;65.58;101365.58;105586;1296;73036;-92
2023/05/24 18:11:29;;;;;;;8.50;6.10;;;;;;;14.64;65.69;101366.67;105498;1296;60009;-91
2023/05/24 18:15:13;;;;;;;6.30;4.90;;;;;;;14.59;65.67;101371.10;105578;1296;59468;-92
2023/05/24 18:22:25;;;;;;;8.50;4.80;;;;;;;14.60;65.83;101379.08;105336;1303;68537;-92
2023/05/24 18:25:54;;;;;;;7.50;5.20;;;;;;;14.59;65.85;101382.90;105409;1299;73481;-92
2023/05/24 18:29:00;;;;;;;7.60;5.30;;;;;;;14.56;65.93;101381.91;104819;1308;59015;-90
2023/05/24 18:31:47;;;;;;;9.20;5.50;;;;;;;14.53;65.79;101380.97;104703;1307;59585;-89